createdAt,value
2019-02-24T00:01:36.662Z,45.84
2019-02-24T00:04:05.079Z,45.62
2019-02-24T00:06:33.465Z,45.59
2019-02-24T00:09:01.851Z,45.79
2019-02-24T00:11:30.258Z,45.50
2019-02-24T00:13:58.648Z,45.65
2019-02-24T00:16:27.038Z,45.53
2019-02-24T00:18:55.468Z,45.62
2019-02-24T00:21:24.223Z,45.86
2019-02-24T00:23:52.908Z,45.38
2019-02-24T00:26:21.312Z,45.99
2019-02-24T00:28:49.707Z,46.21
2019-02-24T00:31:18.116Z,45.50
2019-02-24T00:33:46.731Z,45.84
2019-02-24T00:36:15.132Z,45.55
2019-02-24T00:38:44.622Z,45.10
2019-02-24T00:41:13.025Z,45.31
2019-02-24T00:43:41.417Z,44.89
2019-02-24T00:46:10.059Z,44.81
2019-02-24T00:48:38.464Z,45.50
2019-02-24T00:51:06.933Z,45.15
2019-02-24T00:53:35.323Z,45.06
2019-02-24T00:56:03.786Z,45.17
2019-02-24T00:58:32.467Z,44.78
2019-02-24T01:01:00.855Z,45.23
2019-02-24T01:03:29.535Z,45.36
2019-02-24T01:05:57.957Z,44.85
2019-02-24T01:08:26.343Z,44.64
2019-02-24T01:10:54.974Z,44.52
2019-02-24T01:13:23.373Z,44.66
2019-02-24T01:15:51.759Z,44.14
2019-02-24T01:18:20.135Z,44.45
2019-02-24T01:20:48.541Z,44.50
2019-02-24T01:23:16.993Z,44.75
2019-02-24T01:25:45.401Z,45.01
2019-02-24T01:28:13.783Z,44.54
2019-02-24T01:30:42.193Z,44.99
2019-02-24T01:33:10.899Z,44.55
2019-02-24T01:35:39.588Z,44.26
2019-02-24T01:38:07.995Z,44.31
2019-02-24T01:40:36.461Z,44.27
2019-02-24T01:43:04.976Z,44.50
2019-02-24T01:45:33.440Z,44.55
2019-02-24T01:48:02.015Z,44.00
2019-02-24T01:50:30.681Z,43.82
2019-02-24T01:52:59.091Z,43.97
2019-02-24T01:55:27.478Z,44.45
2019-02-24T01:57:55.884Z,44.36
2019-02-24T02:00:24.291Z,44.12
2019-02-24T02:02:52.983Z,44.77
2019-02-24T02:05:21.669Z,44.67
2019-02-24T02:07:50.075Z,43.77
2019-02-24T02:10:18.546Z,43.50
2019-02-24T02:12:46.943Z,43.06
2019-02-24T02:15:15.355Z,43.35
2019-02-24T02:17:43.760Z,43.54
2019-02-24T02:20:12.148Z,44.16
2019-02-24T02:22:40.558Z,43.90
2019-02-24T02:25:09.589Z,43.48
2019-02-24T02:27:38.023Z,42.88
2019-02-24T02:30:09.876Z,42.42
2019-02-24T02:32:38.259Z,42.25
2019-02-24T02:35:08.081Z,42.11
2019-02-24T02:37:36.742Z,41.89
2019-02-24T02:40:07.271Z,42.08
2019-02-24T02:42:35.655Z,42.16
2019-02-24T02:45:05.526Z,41.45
2019-02-24T02:47:33.922Z,42.40
2019-02-24T02:50:02.320Z,41.81
2019-02-24T02:52:30.725Z,41.99
2019-02-24T02:54:59.110Z,42.70
2019-02-24T02:57:27.492Z,42.20
2019-02-24T02:59:56.252Z,42.33
2019-02-24T03:02:24.920Z,42.03
2019-02-24T03:04:53.407Z,42.69
2019-02-24T03:07:29.193Z,42.77
2019-02-24T03:09:57.587Z,42.39
2019-02-24T03:12:25.982Z,42.55
2019-02-24T03:14:54.377Z,42.52
2019-02-24T03:17:22.776Z,42.27
2019-02-24T03:19:51.166Z,42.01
2019-02-24T03:22:19.564Z,41.88
2019-02-24T03:24:47.962Z,41.91
2019-02-24T03:27:16.815Z,42.11
2019-02-24T03:29:45.203Z,42.14
2019-02-24T03:32:13.610Z,42.67
2019-02-24T03:34:42.004Z,42.64
2019-02-24T03:37:10.482Z,42.72
2019-02-24T03:39:38.879Z,42.61
2019-02-24T03:42:07.261Z,42.23
2019-02-24T03:44:35.976Z,42.42
2019-02-24T03:47:04.356Z,42.33
2019-02-24T03:49:32.743Z,42.72
2019-02-24T03:52:01.134Z,42.94
2019-02-24T03:54:29.527Z,43.01
2019-02-24T03:56:57.936Z,42.52
2019-02-24T03:59:26.328Z,42.91
2019-02-24T04:01:55.043Z,43.48
2019-02-24T04:04:23.738Z,43.23
2019-02-24T04:06:52.183Z,43.62
2019-02-24T04:09:20.585Z,43.25
2019-02-24T04:11:48.994Z,43.90
2019-02-24T04:14:17.378Z,43.48
2019-02-24T04:16:45.910Z,43.18
2019-02-24T04:19:14.321Z,42.90
2019-02-24T04:21:42.808Z,43.40
2019-02-24T04:24:11.471Z,43.03
2019-02-24T04:26:39.876Z,43.22
2019-02-24T04:29:08.262Z,43.39
2019-02-24T04:31:37.123Z,42.82
2019-02-24T04:34:05.527Z,43.74
2019-02-24T04:36:33.954Z,44.36
2019-02-24T04:39:02.482Z,44.97
2019-02-24T04:41:30.881Z,44.84
2019-02-24T04:43:59.455Z,44.56
2019-02-24T04:46:27.840Z,44.26
2019-02-24T04:48:56.425Z,44.23
2019-02-24T04:51:24.816Z,44.58
2019-02-24T04:53:53.224Z,44.56
2019-02-24T04:56:21.660Z,43.83
2019-02-24T04:58:50.043Z,43.62
2019-02-24T05:01:18.528Z,43.35
2019-02-24T05:03:47.091Z,43.63
2019-02-24T05:06:15.762Z,43.77
2019-02-24T05:08:44.166Z,43.75
2019-02-24T05:11:12.552Z,43.68
2019-02-24T05:13:41.070Z,43.48
2019-02-24T05:16:09.508Z,43.79
2019-02-24T05:18:38.058Z,44.19
2019-02-24T05:21:06.448Z,44.13
2019-02-24T05:23:34.853Z,44.22
2019-02-24T05:26:03.248Z,44.21
2019-02-24T05:28:31.648Z,43.85
2019-02-24T05:31:00.038Z,43.80
2019-02-24T05:33:28.659Z,43.87
2019-02-24T05:35:57.062Z,44.28
2019-02-24T05:38:25.711Z,44.79
2019-02-24T05:40:54.102Z,45.36
2019-02-24T05:43:22.487Z,45.99
2019-02-24T05:45:50.907Z,45.09
2019-02-24T05:48:19.297Z,43.70
2019-02-24T05:50:47.678Z,43.22
2019-02-24T05:53:16.133Z,43.28
2019-02-24T05:55:44.794Z,44.11
2019-02-24T05:58:13.266Z,44.29
2019-02-24T06:00:41.674Z,43.72
2019-02-24T06:03:10.140Z,43.60
2019-02-24T06:05:38.532Z,43.13
2019-02-24T06:08:07.184Z,43.47
2019-02-24T06:10:35.576Z,42.89
2019-02-24T06:13:03.967Z,43.38
2019-02-24T06:15:32.554Z,43.61
2019-02-24T06:18:00.935Z,44.69
2019-02-24T06:20:29.315Z,44.27
2019-02-24T06:22:57.720Z,44.43
2019-02-24T06:25:26.101Z,44.84
2019-02-24T06:27:54.490Z,45.41
2019-02-24T06:30:22.885Z,45.84
2019-02-24T06:32:51.286Z,45.72
2019-02-24T06:35:19.677Z,45.58
2019-02-24T06:37:48.345Z,44.97
2019-02-24T06:40:16.744Z,45.27
2019-02-24T06:42:45.145Z,45.62
2019-02-24T06:45:13.536Z,44.79
2019-02-24T06:47:42.264Z,43.82
2019-02-24T06:50:11.143Z,43.71
2019-02-24T06:52:39.556Z,43.84
2019-02-24T06:55:10.749Z,42.53
2019-02-24T06:57:39.129Z,42.48
2019-02-24T07:00:14.093Z,41.68
2019-02-24T07:02:40.878Z,42.27
2019-02-24T07:05:10.028Z,41.26
2019-02-24T07:07:38.413Z,40.54
2019-02-24T07:10:07.644Z,40.49
2019-02-24T07:12:36.037Z,39.97
2019-02-24T07:15:08.501Z,39.89
2019-02-24T07:17:36.902Z,40.85
2019-02-24T07:20:07.206Z,41.40
2019-02-24T07:22:35.594Z,41.16
2019-02-24T07:25:04.816Z,42.03
2019-02-24T07:27:33.216Z,41.79
2019-02-24T07:30:01.697Z,41.38
2019-02-24T07:32:30.205Z,41.77
2019-02-24T07:34:58.619Z,40.49
2019-02-24T07:37:26.999Z,41.27
2019-02-24T07:39:55.387Z,41.71
2019-02-24T07:42:23.782Z,40.65
2019-02-24T07:44:52.173Z,40.40
2019-02-24T07:47:20.567Z,40.27
2019-02-24T07:49:49.171Z,39.90
2019-02-24T07:52:17.554Z,39.65
2019-02-24T07:54:45.945Z,40.22
2019-02-24T07:57:14.347Z,40.24
2019-02-24T07:59:42.736Z,39.76
2019-02-24T08:02:11.470Z,38.52
2019-02-24T08:04:39.862Z,39.88
2019-02-24T08:07:08.343Z,39.60
2019-02-24T08:09:36.727Z,39.85
2019-02-24T08:12:05.385Z,40.00
2019-02-24T08:14:33.765Z,39.89
2019-02-24T08:17:02.548Z,40.49
2019-02-24T08:19:30.940Z,39.39
2019-02-24T08:21:59.337Z,39.04
2019-02-24T08:24:29.138Z,39.11
2019-02-24T08:26:57.616Z,39.47
2019-02-24T08:29:26.163Z,38.81
2019-02-24T08:31:54.582Z,38.52
2019-02-24T08:34:23.249Z,38.40
2019-02-24T08:36:51.655Z,38.52
2019-02-24T08:39:20.126Z,38.65
2019-02-24T08:41:48.925Z,37.00
2019-02-24T08:44:17.585Z,37.26
2019-02-24T08:46:45.969Z,37.36
2019-02-24T08:49:14.537Z,37.22
2019-02-24T08:51:42.908Z,36.76
2019-02-24T08:54:11.350Z,35.79
2019-02-24T08:56:39.815Z,36.56
2019-02-24T08:59:08.306Z,34.38
2019-02-24T09:01:36.680Z,33.60
2019-02-24T09:04:05.333Z,33.18
2019-02-24T09:06:33.709Z,33.18
2019-02-24T09:09:02.507Z,32.21
2019-02-24T09:11:30.909Z,31.12
2019-02-24T09:13:59.287Z,31.12
2019-02-24T09:16:27.670Z,31.40
2019-02-24T09:18:56.069Z,30.88
2019-02-24T09:21:24.443Z,30.18
2019-02-24T09:23:52.874Z,30.88
2019-02-24T09:26:21.685Z,30.41
2019-02-24T09:28:50.967Z,30.41
2019-02-24T09:31:19.533Z,29.53
2019-02-24T09:33:48.021Z,29.53
2019-02-24T09:36:16.845Z,29.67
2019-02-24T09:38:45.356Z,29.76
2019-02-24T09:41:13.749Z,28.89
2019-02-24T09:43:42.110Z,28.11
2019-02-24T09:46:11.156Z,27.87
2019-02-24T09:48:39.555Z,27.13
2019-02-24T09:51:07.929Z,26.72
2019-02-24T09:53:36.326Z,25.76
2019-02-24T09:56:04.719Z,27.09
2019-02-24T09:58:33.180Z,26.91
2019-02-24T10:01:10.150Z,27.03
2019-02-24T10:03:31.883Z,25.83
2019-02-24T10:06:00.260Z,26.43
2019-02-24T10:08:28.643Z,26.01
2019-02-24T10:10:57.103Z,27.82
2019-02-24T10:13:25.477Z,25.96
2019-02-24T10:15:53.857Z,25.24
2019-02-24T10:18:22.250Z,25.36
2019-02-24T10:20:50.728Z,26.08
2019-02-24T10:23:19.140Z,23.67
2019-02-24T10:25:47.523Z,23.42
2019-02-24T10:28:15.911Z,23.54
2019-02-24T10:30:44.768Z,25.08
2019-02-24T10:33:13.156Z,23.12
2019-02-24T10:35:41.907Z,24.44
2019-02-24T10:38:10.296Z,22.09
2019-02-24T10:40:38.692Z,24.05
2019-02-24T10:43:07.089Z,23.78
2019-02-24T10:45:35.473Z,23.71
2019-02-24T10:48:13.467Z,21.81
2019-02-24T10:50:34.178Z,22.45
2019-02-24T10:53:02.621Z,22.54
2019-02-24T10:55:31.008Z,23.32
2019-02-24T10:57:59.504Z,21.92
2019-02-24T11:00:27.888Z,22.12
2019-02-24T11:02:56.293Z,21.70
2019-02-24T11:05:24.679Z,21.31
2019-02-24T11:07:53.171Z,21.43
2019-02-24T11:10:22.392Z,20.98
2019-02-24T11:12:50.775Z,21.01
2019-02-24T11:15:19.270Z,22.03
2019-02-24T11:17:47.731Z,21.70
2019-02-24T11:20:17.786Z,21.90
2019-02-24T11:22:46.161Z,21.96
2019-02-24T11:25:14.588Z,22.15
2019-02-24T11:27:43.089Z,20.93
2019-02-24T11:30:13.527Z,21.88
2019-02-24T11:32:41.933Z,21.77
2019-02-24T11:35:11.566Z,21.32
2019-02-24T11:37:39.964Z,20.77
2019-02-24T11:40:14.239Z,20.70
2019-02-24T11:42:42.588Z,20.58
2019-02-24T11:45:11.240Z,21.20
2019-02-24T11:47:39.645Z,21.90
2019-02-24T11:50:12.131Z,21.41
2019-02-24T11:52:41.211Z,22.43
2019-02-24T11:55:11.023Z,21.60
2019-02-24T11:57:39.459Z,21.89
2019-02-24T12:00:11.189Z,21.43
2019-02-24T12:02:41.642Z,21.57
2019-02-24T12:05:09.841Z,21.27
2019-02-24T12:07:38.261Z,21.17
2019-02-24T12:10:13.278Z,21.75
2019-02-24T12:12:41.656Z,21.59
2019-02-24T12:15:14.923Z,20.57
2019-02-24T12:17:43.459Z,21.61
2019-02-24T12:20:14.280Z,20.54
2019-02-24T12:22:42.671Z,20.37
2019-02-24T12:25:12.070Z,20.94
2019-02-24T12:27:40.547Z,21.27
2019-02-24T12:30:17.209Z,21.66
2019-02-24T12:32:45.607Z,21.33
2019-02-24T12:35:14.506Z,21.41
2019-02-24T12:37:42.901Z,20.17
2019-02-24T12:40:13.393Z,19.82
2019-02-24T12:42:42.074Z,22.22
2019-02-24T12:45:12.101Z,21.34
2019-02-24T12:47:40.678Z,21.47
2019-02-24T12:50:11.483Z,20.32
2019-02-24T12:52:39.900Z,21.20
2019-02-24T12:55:09.498Z,21.95
2019-02-24T12:57:38.184Z,21.24
2019-02-24T13:00:24.814Z,21.30
2019-02-24T13:02:53.249Z,20.84
2019-02-24T13:05:21.886Z,20.84
2019-02-24T13:07:50.424Z,23.35
2019-02-24T13:10:20.155Z,21.76
2019-02-24T13:12:48.584Z,20.75
2019-02-24T13:15:17.504Z,21.59
2019-02-24T13:17:46.347Z,21.56
2019-02-24T13:20:14.868Z,21.55
2019-02-24T13:22:44.734Z,21.47
2019-02-24T13:25:13.868Z,21.45
2019-02-24T13:27:42.327Z,21.71
2019-02-24T13:30:12.917Z,20.14
2019-02-24T13:32:41.392Z,20.42
2019-02-24T13:35:10.215Z,22.15
2019-02-24T13:37:38.608Z,22.35
2019-02-24T13:40:14.823Z,20.55
2019-02-24T13:42:43.307Z,21.25
2019-02-24T13:45:19.644Z,20.57
2019-02-24T13:47:48.170Z,20.72
2019-02-24T13:50:17.614Z,21.05
2019-02-24T13:52:46.079Z,21.62
2019-02-24T13:55:15.427Z,22.22
2019-02-24T13:57:44.138Z,21.25
2019-02-24T14:00:15.418Z,20.96
2019-02-24T14:02:43.786Z,21.79
2019-02-24T14:05:12.576Z,21.97
2019-02-24T14:07:41.297Z,22.20
2019-02-24T14:10:12.508Z,22.54
2019-02-24T14:12:42.429Z,21.35
2019-02-24T14:15:12.653Z,20.90
2019-02-24T14:17:41.306Z,21.32
2019-02-24T14:20:14.398Z,21.48
2019-02-24T14:22:42.786Z,20.95
2019-02-24T14:25:12.327Z,21.84
2019-02-24T14:27:41.000Z,21.58
2019-02-24T14:30:14.823Z,21.05
2019-02-24T14:32:44.225Z,20.98
2019-02-24T14:35:17.886Z,21.33
2019-02-24T14:37:46.360Z,21.86
2019-02-24T14:40:14.821Z,21.73
2019-02-24T14:42:43.246Z,21.59
2019-02-24T14:45:21.155Z,21.87
2019-02-24T14:47:49.538Z,20.59
2019-02-24T14:50:18.385Z,21.02
2019-02-24T14:52:46.777Z,20.78
2019-02-24T14:55:16.212Z,21.00
2019-02-24T14:57:45.134Z,21.25
2019-02-24T15:00:18.481Z,21.66
2019-02-24T15:02:46.987Z,21.62
2019-02-24T15:05:16.874Z,22.72
2019-02-24T15:07:45.451Z,22.10
2019-02-24T15:10:19.797Z,22.01
2019-02-24T15:12:48.646Z,21.61
2019-02-24T15:15:26.386Z,21.79
2019-02-24T15:17:52.971Z,22.34
2019-02-24T15:20:22.521Z,21.97
2019-02-24T15:22:51.431Z,22.67
2019-02-24T15:25:20.267Z,23.88
2019-02-24T15:27:48.810Z,22.29
2019-02-24T15:30:28.980Z,22.03
2019-02-24T15:32:57.369Z,22.04
2019-02-24T15:35:25.842Z,22.07
2019-02-24T15:37:54.701Z,22.17
2019-02-24T15:40:24.720Z,22.38
2019-02-24T15:42:53.117Z,21.68
2019-02-24T15:45:21.759Z,22.59
2019-02-24T15:47:50.279Z,22.61
2019-02-24T15:50:19.463Z,22.73
2019-02-24T15:52:48.394Z,22.20
2019-02-24T15:55:17.833Z,21.75
2019-02-24T15:57:46.220Z,22.39
2019-02-24T16:00:22.514Z,22.29
2019-02-24T16:03:00.587Z,23.04
2019-02-24T16:05:21.446Z,22.42
2019-02-24T16:07:50.165Z,22.80
2019-02-24T16:10:20.965Z,23.29
2019-02-24T16:12:50.304Z,24.71
2019-02-24T16:15:21.254Z,23.58
2019-02-24T16:17:49.634Z,23.07
2019-02-24T16:20:23.970Z,22.74
2019-02-24T16:22:52.461Z,23.02
2019-02-24T16:25:21.880Z,22.81
2019-02-24T16:27:52.684Z,23.52
2019-02-24T16:30:21.191Z,23.72
2019-02-24T16:32:49.604Z,23.64
2019-02-24T16:35:18.510Z,22.77
2019-02-24T16:37:46.980Z,23.17
2019-02-24T16:40:23.776Z,24.67
2019-02-24T16:42:52.290Z,26.03
2019-02-24T16:45:20.778Z,27.69
2019-02-24T16:47:49.330Z,28.38
2019-02-24T16:50:19.130Z,28.72
2019-02-24T16:52:48.866Z,29.07
2019-02-24T16:55:18.193Z,30.99
2019-02-24T16:57:47.448Z,31.93
2019-02-24T17:00:18.736Z,30.77
2019-02-24T17:02:47.217Z,30.97
2019-02-24T17:05:15.851Z,31.15
2019-02-24T17:07:44.636Z,31.94
2019-02-24T17:10:28.004Z,29.02
2019-02-24T17:12:57.325Z,28.71
2019-02-24T17:15:25.842Z,28.73
2019-02-24T17:17:54.294Z,31.01
2019-02-24T17:20:30.301Z,30.19
2019-02-24T17:22:58.721Z,30.55
2019-02-24T17:25:27.194Z,26.71
2019-02-24T17:27:55.819Z,27.23
2019-02-24T17:30:24.196Z,27.00
2019-02-24T17:32:52.661Z,27.81
2019-02-24T17:35:21.424Z,27.50
2019-02-24T17:37:49.870Z,28.04
2019-02-24T17:40:23.011Z,28.45
2019-02-24T17:42:51.479Z,28.23
2019-02-24T17:45:20.027Z,28.63
2019-02-24T17:47:48.406Z,29.12
2019-02-24T17:50:17.808Z,29.42
2019-02-24T17:52:46.236Z,31.30
2019-02-24T17:55:19.238Z,32.83
2019-02-24T17:57:48.152Z,32.93
2019-02-24T18:00:28.564Z,29.25
2019-02-24T18:02:57.161Z,29.07
2019-02-24T18:05:25.557Z,29.95
2019-02-24T18:07:56.143Z,32.51
2019-02-24T18:10:24.629Z,33.77
2019-02-24T18:12:53.224Z,34.03
2019-02-24T18:15:21.783Z,34.13
2019-02-24T18:17:50.572Z,34.15
2019-02-24T18:20:20.716Z,34.29
2019-02-24T18:22:49.293Z,34.76
2019-02-24T18:25:17.687Z,32.97
2019-02-24T18:27:46.250Z,31.93
2019-02-24T18:30:20.764Z,31.27
2019-02-24T18:32:49.161Z,32.82
2019-02-24T18:35:17.620Z,33.21
2019-02-24T18:37:46.313Z,32.82
2019-02-24T18:40:16.224Z,33.00
2019-02-24T18:42:44.771Z,32.46
2019-02-24T18:45:14.496Z,31.77
2019-02-24T18:47:42.887Z,29.88
2019-02-24T18:50:19.196Z,31.62
2019-02-24T18:52:47.768Z,33.76
2019-02-24T18:55:16.452Z,34.25
2019-02-24T18:57:44.908Z,32.82
2019-02-24T19:00:22.161Z,33.96
2019-02-24T19:02:50.886Z,32.19
2019-02-24T19:05:19.269Z,31.51
2019-02-24T19:07:47.665Z,31.42
2019-02-24T19:10:23.964Z,33.18
2019-02-24T19:12:52.362Z,33.39
2019-02-24T19:15:22.808Z,31.16
2019-02-24T19:17:51.194Z,31.22
2019-02-24T19:20:21.944Z,33.47
2019-02-24T19:22:50.616Z,33.96
2019-02-24T19:25:19.548Z,35.20
2019-02-24T19:27:48.147Z,35.20
2019-02-24T19:30:18.993Z,35.06
2019-02-24T19:32:47.496Z,36.30
2019-02-24T19:35:17.130Z,36.30
2019-02-24T19:37:45.934Z,36.06
2019-02-24T19:40:23.722Z,34.46
2019-02-24T19:42:52.111Z,33.92
2019-02-24T19:45:25.732Z,34.66
2019-02-24T19:47:54.594Z,33.52
2019-02-24T19:50:24.077Z,32.56
2019-02-24T19:52:52.483Z,32.56
2019-02-24T19:55:20.957Z,33.86
2019-02-24T19:57:49.376Z,32.40
2019-02-24T20:00:22.929Z,32.40
2019-02-24T20:02:51.391Z,32.23
2019-02-24T20:05:20.609Z,33.05
2019-02-24T20:07:49.336Z,32.64
2019-02-24T20:10:25.059Z,32.64
2019-02-24T20:12:53.495Z,33.00
2019-02-24T20:15:21.888Z,32.76
2019-02-24T20:17:50.471Z,32.76
2019-02-24T20:20:19.044Z,31.97
2019-02-24T20:22:47.432Z,33.43
2019-02-24T20:25:20.830Z,32.93
2019-02-24T20:27:49.383Z,34.47
2019-02-24T20:30:32.216Z,33.51
2019-02-24T20:33:02.706Z,33.41
2019-02-24T20:35:33.143Z,33.68
2019-02-24T20:38:01.543Z,33.68
2019-02-24T20:40:30.097Z,33.37
2019-02-24T20:42:58.593Z,33.33
2019-02-24T20:45:29.091Z,33.33
2019-02-24T20:47:57.188Z,33.15
2019-02-24T20:50:28.241Z,33.56
2019-02-24T20:52:57.146Z,33.56
2019-02-24T20:55:25.535Z,34.02
2019-02-24T20:57:54.372Z,34.02
2019-02-24T21:00:25.744Z,34.83
2019-02-24T21:02:54.209Z,34.58
2019-02-24T21:05:22.661Z,34.14
2019-02-24T21:07:51.122Z,34.14
2019-02-24T21:10:19.774Z,35.40
2019-02-24T21:12:48.273Z,35.40
2019-02-24T21:15:17.835Z,35.35
2019-02-24T21:17:46.209Z,35.35
2019-02-24T21:20:29.549Z,35.76
2019-02-24T21:22:57.924Z,36.33
2019-02-24T21:25:26.313Z,36.33
2019-02-24T21:27:54.711Z,37.02
2019-02-24T21:30:23.282Z,36.78
2019-02-24T21:32:51.913Z,36.79
2019-02-24T21:35:20.316Z,38.36
2019-02-24T21:37:48.971Z,38.36
2019-02-24T21:40:19.026Z,39.40
2019-02-24T21:42:47.480Z,39.42
2019-02-24T21:45:18.830Z,40.17
2019-02-24T21:47:47.230Z,40.32
2019-02-24T21:50:16.863Z,40.32
2019-02-24T21:52:45.418Z,40.22
2019-02-24T21:55:13.955Z,40.29
2019-02-24T21:57:42.583Z,40.66
2019-02-24T22:00:22.034Z,40.66
2019-02-24T22:02:50.435Z,38.77
2019-02-24T22:05:18.986Z,37.49
2019-02-24T22:07:47.687Z,37.49
2019-02-24T22:10:16.856Z,37.33
2019-02-24T22:12:45.593Z,37.54
2019-02-24T22:15:27.780Z,38.88
2019-02-24T22:17:56.158Z,38.88
2019-02-24T22:20:24.567Z,39.95
2019-02-24T22:22:53.318Z,40.44
2019-02-24T22:25:21.736Z,40.44
2019-02-24T22:27:50.115Z,39.75
2019-02-24T22:30:23.367Z,39.91
2019-02-24T22:32:52.256Z,39.90
2019-02-24T22:35:20.634Z,40.57
2019-02-24T22:37:49.099Z,40.33
2019-02-24T22:40:17.767Z,40.10
2019-02-24T22:42:46.625Z,40.37
2019-02-24T22:45:17.215Z,40.40
2019-02-24T22:47:45.718Z,40.37
2019-02-24T22:50:14.737Z,38.41
2019-02-24T22:52:43.204Z,37.26
2019-02-24T22:55:13.889Z,36.48
2019-02-24T22:57:42.605Z,36.20
2019-02-24T23:00:54.200Z,35.99
2019-02-24T23:03:25.599Z,35.99
2019-02-24T23:05:54.435Z,36.90
2019-02-24T23:08:22.833Z,36.90
2019-02-24T23:10:51.818Z,36.11
2019-02-24T23:13:20.630Z,36.11
2019-02-24T23:15:49.359Z,36.78
2019-02-24T23:18:17.765Z,36.78
2019-02-24T23:20:46.161Z,36.98
2019-02-24T23:23:14.827Z,35.53
2019-02-24T23:25:43.216Z,35.53
2019-02-24T23:28:11.617Z,35.93
2019-02-24T23:30:40.053Z,36.50
2019-02-24T23:33:08.458Z,37.80
2019-02-24T23:35:37.137Z,38.57
2019-02-24T23:38:05.922Z,38.57
2019-02-24T23:40:34.376Z,38.33
2019-02-24T23:43:02.814Z,37.70
2019-02-24T23:45:31.482Z,35.77
2019-02-24T23:48:00.160Z,36.09
2019-02-24T23:50:28.572Z,33.92
2019-02-24T23:52:56.961Z,33.92
2019-02-24T23:55:25.349Z,35.84
2019-02-24T23:57:54.080Z,35.73
